Time;durP1;ratioP1;P1;durP2;ratioP2;P2;SDS_P1;SDS_P2;PMS_P1;PMS_P2;Temp;Humidity;BMP_temperature;BMP_pressure;BME280_temperature;BME280_humidity;BME280_pressure;Samples;Min_cycle;Max_cycle;Signal;HPM_P1;HPM_P2
2022/09/25 00:00:36;;;;;;;8.57;3.13;;;13.50;99.90;;;;;;5040204;28;20672;-95
2022/09/25 00:03:10;;;;;;;9.43;2.97;;;13.50;99.90;;;;;;4988799;28;20184;-93
2022/09/25 00:06:09;;;;;;;9.60;3.50;;;13.40;99.90;;;;;;5062602;28;20294;-93
2022/09/25 00:08:38;;;;;;;5.70;3.00;;;13.50;99.90;;;;;;5056632;28;20198;-93
2022/09/25 00:12:11;;;;;;;6.97;2.97;;;13.50;99.90;;;;;;5048685;28;20531;-95
2022/09/25 00:15:11;;;;;;;;;;;;;;;;;;;;;
2022/09/25 00:18:07;;;;;;;8.77;2.53;;;13.50;99.90;;;;;;4972708;28;20167;-95
2022/09/25 00:20:36;;;;;;;7.87;2.80;;;13.50;99.90;;;;;;5039160;28;20196;-94
2022/09/25 00:23:38;;;;;;;6.77;3.10;;;13.50;99.90;;;;;;5039634;28;20238;-94
2022/09/25 00:26:26;;;;;;;;;;;;;;;;;;;;;
2022/09/25 00:29:26;;;;;;;9.13;3.13;;;13.40;99.90;;;;;;4972797;28;20186;-94
2022/09/25 00:32:05;;;;;;;5.37;2.30;;;13.40;99.90;;;;;;5041851;28;20181;-94
2022/09/25 00:34:59;;;;;;;8.47;2.87;;;13.40;99.90;;;;;;5040465;28;20199;-94
2022/09/25 00:37:36;;;;;;;5.93;2.70;;;13.40;99.90;;;;;;5039303;28;20242;-94
2022/09/25 00:40:22;;;;;;;12.37;3.27;;;13.40;99.90;;;;;;5038748;28;20643;-93
2022/09/25 00:42:54;;;;;;;5.37;2.00;;;13.40;99.90;;;;;;5039366;28;20182;-94
2022/09/25 00:45:40;;;;;;;7.27;2.93;;;13.40;99.90;;;;;;5038812;28;20180;-94
2022/09/25 00:48:21;;;;;;;7.57;2.97;;;13.40;99.90;;;;;;5052360;28;20180;-93
2022/09/25 00:51:16;;;;;;;;;;;;;;;;;;;;;
2022/09/25 00:53:46;;;;;;;7.37;3.00;;;13.40;99.90;;;;;;4972499;28;20266;-93
2022/09/25 00:56:35;;;;;;;;;;;;;;;;;;;;;
2022/09/25 00:59:24;;;;;;;9.30;2.93;;;13.20;99.90;;;;;;4972150;28;20168;-94
2022/09/25 01:01:58;;;;;;;6.43;2.30;;;13.50;99.90;;;;;;5041206;28;20614;-93
2022/09/25 01:04:27;;;;;;;5.03;2.07;;;13.40;99.90;;;;;;5039352;28;20176;-94
2022/09/25 01:06:56;;;;;;;11.33;2.73;;;13.40;99.90;;;;;;5038651;28;20303;-94
2022/09/25 01:09:26;;;;;;;7.00;2.40;;;13.40;99.90;;;;;;5038524;28;20189;-93
2022/09/25 01:12:00;;;;;;;9.00;2.90;;;13.50;99.90;;;;;;5039470;28;20188;-94
2022/09/25 01:14:33;;;;;;;10.97;2.70;;;13.50;99.90;;;;;;5038911;28;20178;-94
2022/09/25 01:17:13;;;;;;;5.93;2.17;;;13.50;99.90;;;;;;5041648;28;20175;-93
2022/09/25 01:20:04;;;;;;;4.77;1.90;;;13.50;99.90;;;;;;5042455;28;20629;-94
2022/09/25 01:23:01;;;;;;;6.07;2.27;;;13.50;99.90;;;;;;5042106;28;20188;-94
2022/09/25 01:25:44;;;;;;;8.47;2.27;;;13.40;99.90;;;;;;5042434;28;20178;-94
2022/09/25 01:28:46;;;;;;;10.73;2.50;;;13.40;99.90;;;;;;5042241;28;20178;-94
2022/09/25 01:31:31;;;;;;;;;;;;;;;;;;;;;
2022/09/25 01:34:11;;;;;;;6.17;2.20;;;13.40;99.90;;;;;;4975434;28;20206;-93
2022/09/25 01:36:49;;;;;;;9.17;2.40;;;13.50;99.90;;;;;;5049045;28;20172;-94
2022/09/25 01:39:36;;;;;;;7.37;2.30;;;13.50;99.90;;;;;;5049082;28;20184;-93
2022/09/25 01:42:10;;;;;;;12.10;2.20;;;13.40;99.90;;;;;;5047313;28;20177;-94
2022/09/25 01:44:50;;;;;;;7.93;2.20;;;13.50;99.90;;;;;;5042491;28;20172;-94
2022/09/25 01:47:25;;;;;;;7.60;2.27;;;13.30;99.90;;;;;;5038275;28;20231;-94
2022/09/25 01:50:03;;;;;;;7.13;2.13;;;13.30;99.90;;;;;;5043148;28;20739;-94
2022/09/25 01:52:51;;;;;;;7.17;2.00;;;13.40;99.90;;;;;;5042091;28;20177;-94
2022/09/25 01:55:27;;;;;;;7.03;2.40;;;13.30;99.90;;;;;;5041736;28;20521;-93
2022/09/25 01:58:21;;;;;;;8.43;2.47;;;13.30;99.90;;;;;;5040214;28;20224;-94
2022/09/25 02:00:56;;;;;;;8.33;2.10;;;13.30;99.90;;;;;;5040692;28;20202;-93
2022/09/25 02:03:34;;;;;;;8.40;1.90;;;13.30;99.90;;;;;;5041916;28;20172;-93
2022/09/25 02:06:12;;;;;;;5.83;2.17;;;13.20;99.90;;;;;;5051392;28;20227;-93
2022/09/25 02:08:52;;;;;;;7.23;2.40;;;13.20;99.90;;;;;;5064949;28;20178;-92
2022/09/25 02:11:19;;;;;;;4.80;2.10;;;13.10;99.90;;;;;;5051693;28;20192;-92
2022/09/25 02:14:06;;;;;;;5.23;2.20;;;13.00;99.90;;;;;;5058368;28;20243;-91
2022/09/25 02:16:43;;;;;;;5.53;2.03;;;13.00;99.90;;;;;;5060749;28;20203;-92
2022/09/25 02:22:12;;;;;;;6.80;2.37;;;12.90;99.90;;;;;;4995936;28;20161;-92
2022/09/25 02:24:46;;;;;;;7.93;2.20;;;12.80;99.90;;;;;;5063880;28;20199;-94
2022/09/25 02:27:13;;;;;;;8.70;2.70;;;12.80;99.90;;;;;;5064602;28;20203;-93
2022/09/25 02:30:08;;;;;;;8.47;2.87;;;12.80;99.90;;;;;;5064269;28;20191;-92
2022/09/25 02:32:46;;;;;;;8.50;2.40;;;12.70;99.90;;;;;;5065202;28;20196;-93
2022/09/25 02:35:16;;;;;;;6.13;2.93;;;12.80;99.90;;;;;;5065094;28;20179;-94
2022/09/25 02:38:05;;;;;;;6.37;2.10;;;12.80;99.90;;;;;;5065552;28;20179;-94
2022/09/25 02:40:52;;;;;;;6.13;2.30;;;12.80;99.90;;;;;;5056141;28;20184;-94
2022/09/25 02:43:59;;;;;;;6.77;2.20;;;12.80;99.90;;;;;;5044440;28;20593;-94
2022/09/25 02:50:05;;;;;;;6.73;1.90;;;12.70;99.90;;;;;;4974481;28;20616;-94
2022/09/25 02:59:26;;;;;;;13.53;3.17;;;12.70;99.90;;;;;;4975384;28;20172;-94
2022/09/25 03:02:05;;;;;;;4.93;2.20;;;12.60;99.90;;;;;;4975352;28;20183;-94
2022/09/25 03:04:37;;;;;;;9.63;2.47;;;12.50;99.90;;;;;;5040772;28;20176;-94
2022/09/25 03:07:06;;;;;;;6.80;2.20;;;12.40;99.90;;;;;;5040979;28;20247;-94
2022/09/25 03:10:40;;;;;;;;;;;;;;;;;;;;;
2022/09/25 03:13:36;;;;;;;7.63;2.10;;;12.50;99.90;;;;;;4920013;28;20173;-94
2022/09/25 03:16:07;;;;;;;5.13;2.07;;;12.40;99.90;;;;;;5040609;28;20210;-94
2022/09/25 03:21:51;;;;;;;6.63;2.53;;;12.40;99.90;;;;;;4976359;28;20183;-93
2022/09/25 03:24:17;;;;;;;7.70;2.93;;;12.30;99.90;;;;;;5044552;28;20184;-94
2022/09/25 03:26:43;;;;;;;6.93;2.50;;;12.40;99.90;;;;;;5042350;28;20280;-93
2022/09/25 03:29:22;;;;;;;10.47;2.73;;;12.40;99.90;;;;;;5049205;28;20197;-93
2022/09/25 03:35:02;;;;;;;8.67;2.67;;;12.30;99.90;;;;;;4973351;28;20229;-94
2022/09/25 03:37:31;;;;;;;7.60;2.60;;;12.30;99.90;;;;;;5039858;28;20179;-94
2022/09/25 03:39:57;;;;;;;8.13;3.17;;;12.40;99.90;;;;;;5039012;28;20624;-93
2022/09/25 03:42:30;;;;;;;6.57;2.50;;;12.30;99.90;;;;;;5039479;28;20172;-93
2022/09/25 03:45:27;;;;;;;6.47;2.67;;;12.40;99.90;;;;;;5039395;28;20270;-93
2022/09/25 03:47:56;;;;;;;7.43;2.90;;;12.40;99.90;;;;;;5041547;28;20709;-92
2022/09/25 03:50:27;;;;;;;11.10;2.90;;;12.40;99.90;;;;;;5039899;28;20204;-93
2022/09/25 03:52:53;;;;;;;4.97;2.47;;;12.50;99.90;;;;;;5039481;28;20180;-93
2022/09/25 03:55:22;;;;;;;8.83;3.00;;;12.40;99.90;;;;;;5040176;28;20183;-94
2022/09/25 03:57:59;;;;;;;7.70;2.70;;;12.40;99.90;;;;;;5043049;28;20262;-93
2022/09/25 04:00:27;;;;;;;11.63;3.00;;;12.30;99.90;;;;;;5039728;28;20180;-93
2022/09/25 04:03:29;;;;;;;6.60;2.77;;;12.30;99.90;;;;;;5039234;28;20739;-94
2022/09/25 04:05:58;;;;;;;8.67;3.63;;;12.30;99.90;;;;;;4972138;28;20235;-92
2022/09/25 04:08:26;;;;;;;12.27;3.20;;;12.40;99.90;;;;;;5039296;28;20238;-94
2022/09/25 04:10:58;;;;;;;8.20;2.90;;;12.40;99.90;;;;;;5039753;28;20179;-93
2022/09/25 04:13:28;;;;;;;9.07;2.63;;;12.30;99.90;;;;;;5039511;28;20191;-94
2022/09/25 04:15:55;;;;;;;9.40;3.20;;;12.40;99.90;;;;;;5038705;28;20215;-95
2022/09/25 04:18:21;;;;;;;12.67;3.27;;;12.30;99.90;;;;;;5039185;28;20173;-95
2022/09/25 04:20:50;;;;;;;9.83;3.37;;;12.30;99.90;;;;;;5039066;28;20329;-93
2022/09/25 04:23:27;;;;;;;12.03;3.07;;;12.20;99.90;;;;;;5038980;28;20236;-94
2022/09/25 04:30:00;;;;;;;8.70;3.30;;;12.30;99.90;;;;;;4979030;28;20204;-94
2022/09/25 04:35:13;;;;;;;5.63;2.80;;;12.30;99.90;;;;;;4972567;28;20678;-92
2022/09/25 04:37:40;;;;;;;6.63;3.10;;;12.20;99.90;;;;;;5040646;28;20544;-92
2022/09/25 04:43:56;;;;;;;9.83;4.00;;;12.20;99.90;;;;;;4975824;28;20176;-93
2022/09/25 04:46:31;;;;;;;8.50;3.23;;;12.40;99.90;;;;;;5040257;28;20213;-92
2022/09/25 04:49:24;;;;;;;7.63;3.80;;;12.30;99.90;;;;;;5058683;28;20211;-93
2022/09/25 04:52:32;;;;;;;8.87;3.63;;;12.40;99.90;;;;;;5051413;28;20176;-92
2022/09/25 04:55:20;;;;;;;8.23;4.10;;;12.50;99.90;;;;;;5018676;28;20569;-93
2022/09/25 04:58:43;;;;;;;10.10;4.60;;;12.50;99.90;;;;;;5042340;28;20192;-93
2022/09/25 05:05:16;;;;;;;11.67;4.60;;;12.30;99.90;;;;;;4983830;28;20234;-92
2022/09/25 05:11:13;;;;;;;7.13;4.10;;;12.30;99.90;;;;;;5060322;28;20204;-91
2022/09/25 05:13:50;;;;;;;11.20;4.30;;;12.40;99.90;;;;;;5044038;28;20178;-91
2022/09/25 05:17:04;;;;;;;8.87;4.10;;;12.40;99.90;;;;;;5059906;28;20170;-92
2022/09/25 05:20:10;;;;;;;9.87;4.70;;;12.50;99.90;;;;;;5037256;28;20170;-92
2022/09/25 05:23:56;;;;;;;;;;;;;;;;;;;;;
2022/09/25 05:26:47;;;;;;;11.50;5.53;;;12.20;99.90;;;;;;5046710;28;20218;-92
2022/09/25 05:29:21;;;;;;;9.50;4.50;;;12.30;99.90;;;;;;5022162;28;20189;-93
2022/09/25 05:31:55;;;;;;;12.23;5.40;;;12.20;99.90;;;;;;5015256;28;20187;-93
2022/09/25 05:34:24;;;;;;;8.40;5.07;;;12.20;99.90;;;;;;5051214;28;20193;-93
2022/09/25 05:37:02;;;;;;;9.07;5.37;;;12.30;99.90;;;;;;5052522;28;20184;-93
2022/09/25 05:40:00;;;;;;;12.50;5.33;;;12.30;99.90;;;;;;5046920;28;20203;-92
2022/09/25 05:42:50;;;;;;;13.60;6.30;;;12.10;99.90;;;;;;5043893;28;20222;-95
2022/09/25 05:45:29;;;;;;;9.30;5.60;;;12.10;99.90;;;;;;5043249;28;20297;-93
2022/09/25 05:48:31;;;;;;;9.33;6.03;;;12.00;99.90;;;;;;5046089;28;20192;-93
2022/09/25 05:51:06;;;;;;;10.77;5.33;;;12.10;99.90;;;;;;5045597;28;20191;-93
2022/09/25 05:53:46;;;;;;;10.00;5.37;;;12.20;99.90;;;;;;5055697;28;20564;-93
2022/09/25 05:56:16;;;;;;;9.37;6.00;;;12.30;99.90;;;;;;5046663;28;20239;-94
2022/09/25 05:59:06;;;;;;;11.30;5.77;;;12.40;99.90;;;;;;5044451;28;20177;-94
2022/09/25 06:01:53;;;;;;;9.37;5.57;;;12.60;99.90;;;;;;5045357;28;20187;-94
2022/09/25 06:04:59;;;;;;;11.70;6.03;;;12.70;99.90;;;;;;5045238;28;20263;-94
2022/09/25 06:07:56;;;;;;;13.83;6.13;;;12.80;99.90;;;;;;5043100;28;20232;-94
2022/09/25 06:10:25;;;;;;;10.87;5.40;;;12.60;99.90;;;;;;5059251;28;20177;-92
2022/09/25 06:13:05;;;;;;;13.63;6.43;;;12.60;99.90;;;;;;5054277;28;20274;-94
2022/09/25 06:15:55;;;;;;;16.90;6.40;;;12.70;99.90;;;;;;5059235;28;20164;-93
2022/09/25 06:18:38;;;;;;;10.07;6.10;;;12.90;99.90;;;;;;5057093;28;20182;-93
2022/09/25 06:21:39;;;;;;;13.03;6.20;;;12.80;99.90;;;;;;5061084;28;20199;-94
2022/09/25 06:24:05;;;;;;;11.13;6.43;;;12.90;99.90;;;;;;5061197;28;20172;-92
2022/09/25 06:26:32;;;;;;;12.60;5.70;;;13.00;99.90;;;;;;5042535;28;20213;-94
2022/09/25 06:29:06;;;;;;;7.77;5.43;;;13.10;99.90;;;;;;5049673;28;20180;-93
2022/09/25 06:32:02;;;;;;;8.93;5.60;;;13.50;99.90;;;;;;5045528;28;20177;-94
2022/09/25 06:34:27;;;;;;;14.23;6.00;;;13.40;99.90;;;;;;5058289;28;20158;-92
2022/09/25 06:40:48;;;;;;;10.37;5.47;;;13.40;99.90;;;;;;5023702;28;20177;-95
2022/09/25 06:43:33;;;;;;;9.47;5.17;;;13.50;99.90;;;;;;5049494;28;20190;-94
2022/09/25 06:46:02;;;;;;;8.53;4.90;;;13.40;99.90;;;;;;5055853;28;20268;-92
2022/09/25 06:48:29;;;;;;;7.13;4.93;;;13.70;99.90;;;;;;5055781;28;20176;-92
2022/09/25 06:50:57;;;;;;;8.67;4.57;;;13.80;99.30;;;;;;5055628;28;20174;-93
2022/09/25 06:53:25;;;;;;;9.83;5.30;;;13.80;98.50;;;;;;5052811;28;20203;-94
2022/09/25 06:55:56;;;;;;;8.07;4.73;;;13.90;97.20;;;;;;5047539;28;20179;-93
2022/09/25 06:58:24;;;;;;;10.03;5.43;;;14.00;95.50;;;;;;5047633;28;20186;-94
2022/09/25 07:00:55;;;;;;;9.33;5.20;;;13.90;95.50;;;;;;5046899;28;20212;-94
2022/09/25 07:06:11;;;;;;;9.30;5.27;;;13.80;95.40;;;;;;4978037;28;20222;-93
2022/09/25 07:09:11;;;;;;;11.17;6.20;;;13.80;95.50;;;;;;5047366;28;20210;-95
2022/09/25 07:11:41;;;;;;;12.57;5.67;;;13.90;95.30;;;;;;5049738;28;20247;-94
2022/09/25 07:14:09;;;;;;;12.60;6.37;;;13.90;94.50;;;;;;5036137;28;20205;-93
2022/09/25 07:16:36;;;;;;;10.00;6.00;;;14.00;93.80;;;;;;5058794;28;20663;-93
2022/09/25 07:19:22;;;;;;;9.70;5.63;;;14.10;93.30;;;;;;5057868;28;20186;-92
2022/09/25 07:22:05;;;;;;;12.50;6.50;;;14.10;92.30;;;;;;5063612;28;20155;-92
2022/09/25 07:24:37;;;;;;;10.20;5.57;;;14.20;92.50;;;;;;4999863;28;20164;-92
2022/09/25 07:27:42;;;;;;;11.10;6.03;;;14.20;92.00;;;;;;5079433;28;20582;-93
2022/09/25 07:30:21;;;;;;;8.97;5.60;;;14.30;92.00;;;;;;5067693;28;20238;-94
2022/09/25 07:32:52;;;;;;;10.13;5.40;;;14.50;91.60;;;;;;5066161;28;20287;-94
2022/09/25 07:35:33;;;;;;;10.50;6.00;;;14.40;90.30;;;;;;5054347;28;20167;-96
2022/09/25 07:38:11;;;;;;;8.50;5.33;;;14.50;87.90;;;;;;5079089;28;20159;-92
2022/09/25 07:40:41;;;;;;;8.03;5.47;;;14.40;87.00;;;;;;5016778;28;20147;-95
2022/09/25 07:43:08;;;;;;;11.03;5.40;;;14.40;88.60;;;;;;5072885;28;20182;-95
2022/09/25 07:46:04;;;;;;;10.37;5.67;;;14.50;89.20;;;;;;5053511;28;20184;-94
2022/09/25 07:48:39;;;;;;;9.03;4.93;;;14.70;88.50;;;;;;5054236;28;20172;-94
2022/09/25 07:51:16;;;;;;;10.33;5.13;;;14.80;87.10;;;;;;5037415;28;20187;-95
2022/09/25 07:54:04;;;;;;;6.93;4.10;;;15.00;84.90;;;;;;4979160;28;20179;-95
2022/09/25 08:00:09;;;;;;;7.53;4.50;;;14.50;85.10;;;;;;4987228;28;20182;-95
2022/09/25 08:02:36;;;;;;;6.23;3.90;;;14.40;89.50;;;;;;5045790;28;20179;-94
2022/09/25 08:05:07;;;;;;;7.40;3.90;;;14.30;90.20;;;;;;5034169;28;20188;-96
2022/09/25 08:07:35;;;;;;;6.93;3.83;;;14.50;89.40;;;;;;5065765;28;20682;-95
2022/09/25 08:10:02;;;;;;;6.90;3.30;;;14.60;89.60;;;;;;5057214;28;20179;-94
2022/09/25 08:12:28;;;;;;;8.00;3.23;;;14.70;86.70;;;;;;5060605;28;20167;-95
2022/09/25 08:15:04;;;;;;;5.43;2.73;;;14.70;86.40;;;;;;5046694;28;20191;-93
2022/09/25 08:17:33;;;;;;;7.97;3.27;;;14.80;84.90;;;;;;5057041;28;20241;-96
2022/09/25 08:19:59;;;;;;;8.70;3.30;;;14.80;85.80;;;;;;5056193;28;20179;-96
2022/09/25 08:23:01;;;;;;;6.20;2.40;;;14.90;85.40;;;;;;5003368;28;20184;-94
2022/09/25 08:25:28;;;;;;;7.30;2.57;;;14.90;85.50;;;;;;4990996;28;20309;-95
2022/09/25 08:28:18;;;;;;;6.50;2.03;;;15.10;83.10;;;;;;4990652;28;20251;-93
2022/09/25 08:30:53;;;;;;;8.90;2.20;;;14.90;80.60;;;;;;5041853;28;20522;-96
2022/09/25 08:33:20;;;;;;;4.53;2.00;;;14.80;80.00;;;;;;5068728;28;20205;-91
2022/09/25 08:35:59;;;;;;;7.10;1.50;;;14.90;80.50;;;;;;4998299;28;20281;-94
2022/09/25 08:38:27;;;;;;;4.57;1.33;;;14.70;75.20;;;;;;5057807;28;20190;-96
2022/09/25 10:04:25;;;;;;;3.90;1.33;;;16.20;26.50;;;;;;5029214;22;20247;-96
2022/09/25 10:10:54;;;;;;;5.93;1.40;;;16.10;21.40;;;;;;5121193;22;20239;-95
2022/09/25 10:24:26;;;;;;;5.20;1.50;;;16.60;1.70;;;;;;5055000;28;20247;-96
2022/09/25 10:51:24;;;;;;;2.97;1.40;;;17.10;1.00;;;;;;5092439;28;20188;-96
2022/09/25 10:54:15;;;;;;;4.50;1.50;;;17.30;1.00;;;;;;5057936;28;20183;-95
2022/09/25 10:56:42;;;;;;;4.90;1.50;;;17.40;1.00;;;;;;5066818;28;20164;-96
2022/09/25 10:59:20;;;;;;;3.87;1.37;;;17.40;1.00;;;;;;5040992;28;20177;-93
2022/09/25 11:01:49;;;;;;;3.53;1.23;;;17.10;1.00;;;;;;5036051;28;20177;-96
2022/09/25 11:04:53;;;;;;;4.43;1.27;;;17.00;1.00;;;;;;5046528;28;20638;-95
2022/09/25 11:07:26;;;;;;;4.00;1.37;;;17.00;1.00;;;;;;5025577;28;20241;-96
2022/09/25 11:09:54;;;;;;;3.20;1.00;;;17.10;1.00;;;;;;5032154;28;20182;-96
2022/09/25 11:12:38;;;;;;;3.37;1.07;;;17.20;1.00;;;;;;5067178;28;20168;-95
2022/09/25 11:15:15;;;;;;;4.10;1.60;;;17.20;1.00;;;;;;5071393;28;20204;-96
2022/09/25 11:17:43;;;;;;;4.43;1.30;;;17.20;1.00;;;;;;5063454;28;20189;-94
2022/09/25 11:20:43;;;;;;;4.63;1.33;;;17.30;1.00;;;;;;5026951;28;20169;-95
2022/09/25 11:23:55;;;;;;;3.43;1.27;;;17.40;1.00;;;;;;5043263;28;20178;-94
2022/09/25 11:26:28;;;;;;;3.40;1.10;;;17.30;1.00;;;;;;5021280;28;20678;-94
2022/09/25 11:29:20;;;;;;;4.70;1.53;;;17.10;1.00;;;;;;5026546;28;20183;-94
2022/09/25 11:32:04;;;;;;;7.40;1.00;;;17.10;1.00;;;;;;5031633;28;20181;-94
2022/09/25 11:34:43;;;;;;;5.03;1.20;;;17.30;1.00;;;;;;5052696;28;20201;-96
2022/09/25 11:37:34;;;;;;;2.77;1.50;;;17.20;1.00;;;;;;5036858;28;20195;-95
2022/09/25 11:43:11;;;;;;;4.10;1.43;;;17.20;1.00;;;;;;5065838;28;20156;-92
2022/09/25 11:46:01;;;;;;;5.00;1.23;;;16.90;1.00;;;;;;5059156;28;20185;-92
2022/09/25 11:49:24;;;;;;;4.67;1.50;;;17.00;1.00;;;;;;5043005;28;20224;-93
2022/09/25 11:52:08;;;;;;;3.90;1.00;;;17.10;1.00;;;;;;4968710;28;20152;-93
2022/09/25 11:54:40;;;;;;;6.07;1.27;;;17.00;1.00;;;;;;5049876;28;20176;-93
2022/09/25 11:57:49;;;;;;;5.23;1.17;;;16.90;1.00;;;;;;5067954;28;20260;-94
2022/09/25 12:00:52;;;;;;;3.73;1.10;;;17.00;1.00;;;;;;5049302;28;20179;-95
2022/09/25 12:07:26;;;;;;;4.37;1.63;;;17.00;1.00;;;;;;5071391;28;20228;-93
2022/09/25 12:10:36;;;;;;;4.30;1.93;;;17.00;1.00;;;;;;5046857;28;20547;-94
2022/09/25 12:13:25;;;;;;;6.27;1.70;;;16.90;10.20;;;;;;5033530;28;20228;-95
2022/09/25 12:16:00;;;;;;;4.53;1.43;;;16.80;16.90;;;;;;5045281;28;20183;-96
2022/09/25 12:45:08;;;;;;;3.03;1.13;;;17.50;1.00;;;;;;5095047;22;20223;-96
2022/09/25 12:48:10;;;;;;;2.37;1.23;;;17.20;1.00;;;;;;5059527;28;20221;-93
2022/09/25 12:51:05;;;;;;;4.90;1.60;;;17.10;1.00;;;;;;4999493;28;20244;-95
2022/09/25 13:00:27;;;;;;;5.07;0.90;;;16.50;1.00;;;;;;5099657;22;20244;-96
2022/09/25 13:03:18;;;;;;;3.07;1.20;;;16.90;1.00;;;;;;5039184;28;20247;-96
2022/09/25 13:06:22;;;;;;;3.80;1.30;;;17.00;1.00;;;;;;5034916;28;20174;-96
2022/09/25 13:15:26;;;;;;;3.77;1.43;;;17.60;1.00;;;;;;5376294;22;20236;-96
2022/09/25 13:18:18;;;;;;;3.20;1.50;;;17.60;1.00;;;;;;5062705;28;20196;-96
2022/09/25 15:10:18;;;;;;;2.73;1.23;;;17.80;1.00;;;;;;4975692;28;20243;-96
2022/09/25 15:17:21;;;;;;;3.13;1.00;;;18.10;1.00;;;;;;4980530;28;20201;-96
2022/09/25 15:19:53;;;;;;;2.20;1.00;;;18.40;1.00;;;;;;4975391;28;20176;-96
2022/09/25 15:27:58;;;;;;;4.27;0.90;;;19.50;1.00;;;;;;5089176;22;20247;-96
2022/09/25 15:33:46;;;;;;;3.73;1.40;;;19.60;1.00;;;;;;6012242;22;20202;-96
2022/09/25 15:36:39;;;;;;;1.80;1.10;;;19.50;1.00;;;;;;4993749;28;20187;-96
2022/09/25 15:39:44;;;;;;;3.20;0.90;;;19.50;1.00;;;;;;5010814;28;20184;-96
2022/09/25 15:45:26;;;;;;;3.00;1.40;;;19.40;1.00;;;;;;5437761;22;20245;-96
2022/09/25 15:52:02;;;;;;;4.83;2.23;;;18.30;1.00;;;;;;5016651;28;20183;-96
2022/09/25 15:58:42;;;;;;;2.07;1.20;;;18.00;1.00;;;;;;5014447;28;20196;-96
2022/09/25 16:05:59;;;;;;;2.70;1.33;;;18.90;1.00;;;;;;5013303;28;20231;-96
2022/09/25 16:08:47;;;;;;;3.27;1.30;;;18.40;1.00;;;;;;5012375;28;20274;-96
2022/09/25 16:11:38;;;;;;;3.23;1.40;;;17.60;1.00;;;;;;5185629;22;20202;-96
2022/09/25 16:25:37;;;;;;;7.93;3.50;;;16.60;21.10;;;;;;5073774;28;20220;-96
2022/09/25 16:35:22;;;;;;;3.70;1.80;;;16.40;26.30;;;;;;5056504;28;20198;-96
2022/09/25 16:38:37;;;;;;;4.53;1.80;;;16.30;23.50;;;;;;5056461;28;20181;-96
2022/09/25 16:43:45;;;;;;;4.27;2.10;;;16.10;30.40;;;;;;5012297;22;20231;-93
2022/09/25 16:46:25;;;;;;;4.80;2.40;;;16.00;33.40;;;;;;4995659;28;20226;-93
2022/09/25 16:49:45;;;;;;;5.33;2.23;;;15.80;37.40;;;;;;5062799;28;20176;-93
2022/09/25 16:52:50;;;;;;;5.23;1.90;;;15.80;41.00;;;;;;5018953;28;20178;-93
2022/09/25 16:55:46;;;;;;;3.30;1.90;;;15.80;39.50;;;;;;5020314;28;20194;-93
2022/09/25 16:58:13;;;;;;;4.33;2.10;;;15.70;46.00;;;;;;5057398;22;20234;-96
2022/09/25 17:01:03;;;;;;;3.73;1.80;;;15.60;47.90;;;;;;4976686;28;20210;-95
2022/09/25 17:04:28;;;;;;;6.40;2.23;;;15.60;49.30;;;;;;5060254;28;20175;-95
2022/09/25 17:07:02;;;;;;;2.80;1.80;;;15.70;49.50;;;;;;5056652;28;20269;-95
2022/09/25 17:09:36;;;;;;;5.27;2.33;;;15.80;47.10;;;;;;5049634;28;20186;-96
2022/09/25 17:12:37;;;;;;;3.63;1.90;;;15.80;45.60;;;;;;5042078;28;20205;-96
2022/09/25 17:22:31;;;;;;;7.73;4.13;;;15.90;38.60;;;;;;4996883;28;20170;-96
2022/09/25 17:25:51;;;;;;;6.30;2.73;;;15.90;38.80;;;;;;4988038;28;20216;-95
2022/09/25 17:28:21;;;;;;;6.00;2.03;;;15.90;38.40;;;;;;5051606;28;20204;-96
2022/09/25 17:31:43;;;;;;;5.70;2.20;;;15.90;41.90;;;;;;5068956;28;20182;-95
2022/09/25 17:35:13;;;;;;;2.37;1.70;;;16.00;40.50;;;;;;5015588;28;20226;-96
2022/09/25 17:41:33;;;;;;;6.10;3.73;;;16.10;36.20;;;;;;5018167;28;20232;-94
2022/09/25 17:44:35;;;;;;;7.80;2.87;;;16.10;33.00;;;;;;5080894;28;20166;-95
2022/09/25 17:51:21;;;;;;;;;;;;;;;;;;;;;
2022/09/25 17:54:48;;;;;;;4.87;2.37;;;16.00;27.50;;;;;;5055885;28;20185;-94
2022/09/25 18:00:50;;;;;;;5.10;2.50;;;15.90;19.30;;;;;;5444932;22;21653;-96
2022/09/25 18:03:22;;;;;;;4.50;2.63;;;15.90;21.80;;;;;;5049418;22;20223;-95
2022/09/25 18:06:00;;;;;;;7.23;3.67;;;15.90;21.00;;;;;;5032359;22;20216;-94
2022/09/25 18:24:42;;;;;;;;;;;;;;;;;;;;;
2022/09/25 18:44:18;;;;;;;;;;;;;;;;;;;;;
2022/09/25 18:47:16;;;;;;;6.63;3.17;;;15.80;29.90;;;;;;4997854;28;20222;-95
2022/09/25 18:50:01;;;;;;;9.87;7.27;;;15.80;30.70;;;;;;5037253;28;20187;-94
2022/09/25 18:53:25;;;;;;;5.33;3.23;;;15.70;33.50;;;;;;5030553;28;20274;-96
2022/09/25 19:02:37;;;;;;;6.80;3.50;;;15.50;36.40;;;;;;4959077;28;20200;-96
2022/09/25 19:05:30;;;;;;;4.37;2.97;;;15.50;34.60;;;;;;4929709;29;20166;-96
2022/09/25 19:09:03;;;;;;;4.87;2.50;;;15.40;34.20;;;;;;4920870;29;20242;-95
2022/09/25 19:12:40;;;;;;;4.87;1.97;;;15.40;35.10;;;;;;4892810;29;20220;-93
2022/09/25 19:15:23;;;;;;;4.00;2.50;;;15.40;30.30;;;;;;4894868;28;20179;-96
2022/09/25 19:37:40;;;;;;;6.10;4.00;;;15.40;35.30;;;;;;4951301;28;20231;-96
2022/09/25 19:46:42;;;;;;;5.87;3.90;;;15.10;51.20;;;;;;4957986;28;20207;-96
2022/09/25 19:49:52;;;;;;;8.03;4.40;;;14.90;54.20;;;;;;5013246;28;20192;-92
2022/09/25 19:52:50;;;;;;;6.63;3.87;;;14.90;55.60;;;;;;5019714;28;20184;-96
2022/09/25 19:55:41;;;;;;;6.63;3.70;;;14.70;59.40;;;;;;5007296;28;20711;-96
2022/09/25 19:58:38;;;;;;;4.80;3.40;;;14.70;61.50;;;;;;5024090;28;20183;-96
2022/09/25 20:01:38;;;;;;;5.47;3.60;;;14.60;60.20;;;;;;4943806;28;20177;-96
2022/09/25 20:08:07;;;;;;;5.87;4.43;;;14.60;62.50;;;;;;4953137;28;20297;-96
2022/09/25 20:11:08;;;;;;;;;;;;;;;;;;;;;
2022/09/25 20:14:08;;;;;;;6.83;4.90;;;14.50;66.80;;;;;;4916060;28;20245;-96
2022/09/25 20:16:43;;;;;;;6.20;4.37;;;14.50;70.30;;;;;;4932859;28;20172;-96
